Time;durP1;ratioP1;P1;durP2;ratioP2;P2;SDS_P1;SDS_P2;PMS_P1;PMS_P2;Temp;Humidity;BMP_temperature;BMP_pressure;BME280_temperature;BME280_humidity;BME280_pressure;Samples;Min_cycle;Max_cycle;Signal;HPM_P1;HPM_P2
2022/09/02 00:01:18;;;;;;;0.60;0.60;;;13.30;99.90;;;;;;5037807;28;20217;-44
2022/09/02 00:03:47;;;;;;;1.37;0.80;;;13.40;99.90;;;;;;5041483;28;20250;-47
2022/09/02 00:06:15;;;;;;;0.60;0.50;;;13.30;99.90;;;;;;5039192;28;20797;-47
2022/09/02 00:08:43;;;;;;;0.90;0.73;;;13.30;99.90;;;;;;5030811;28;20207;-44
2022/09/02 00:11:15;;;;;;;1.33;0.80;;;13.30;99.90;;;;;;5037258;28;20203;-46
2022/09/02 00:13:43;;;;;;;1.47;0.57;;;13.20;99.90;;;;;;5042603;28;20215;-45
2022/09/02 00:16:10;;;;;;;0.63;0.50;;;13.20;99.90;;;;;;5042135;28;20234;-48
2022/09/02 00:18:38;;;;;;;0.50;0.50;;;13.20;99.90;;;;;;5045296;28;20203;-45
2022/09/02 00:21:05;;;;;;;1.17;0.70;;;13.20;99.90;;;;;;5040249;28;20239;-53
2022/09/02 00:23:33;;;;;;;0.57;0.57;;;13.20;99.90;;;;;;5026444;28;20219;-46
2022/09/02 00:26:01;;;;;;;0.67;0.67;;;13.10;99.90;;;;;;5039676;28;20302;-48
2022/09/02 00:28:28;;;;;;;0.53;0.53;;;13.10;99.90;;;;;;5041314;28;21000;-48
2022/09/02 00:30:55;;;;;;;0.70;0.70;;;13.00;99.90;;;;;;5043727;28;20203;-48
2022/09/02 00:33:21;;;;;;;2.10;1.17;;;13.00;99.90;;;;;;5040665;28;20298;-45
2022/09/02 00:35:49;;;;;;;0.83;0.60;;;13.00;99.90;;;;;;5045581;28;20199;-47
2022/09/02 00:38:17;;;;;;;1.93;0.73;;;13.00;99.90;;;;;;5027301;28;20210;-46
2022/09/02 00:40:48;;;;;;;2.17;0.60;;;13.00;99.90;;;;;;5043187;28;20195;-45
2022/09/02 00:43:24;;;;;;;1.63;0.60;;;12.90;99.90;;;;;;5039310;28;20305;-44
2022/09/02 00:45:51;;;;;;;0.60;0.60;;;12.90;99.90;;;;;;5042032;28;20212;-49
2022/09/02 00:48:18;;;;;;;1.00;0.80;;;12.90;99.90;;;;;;5040484;28;20205;-48
2022/09/02 00:50:46;;;;;;;1.47;0.57;;;12.90;99.90;;;;;;5045512;28;20199;-48
2022/09/02 00:53:14;;;;;;;0.90;0.47;;;12.90;99.90;;;;;;5035517;28;20269;-48
2022/09/02 00:55:45;;;;;;;0.97;0.70;;;12.80;99.90;;;;;;5031934;28;20207;-52
2022/09/02 00:58:16;;;;;;;0.60;0.60;;;12.80;99.90;;;;;;5028496;28;20307;-51
2022/09/02 01:00:45;;;;;;;1.40;0.50;;;12.80;99.90;;;;;;5042860;28;20199;-48
2022/09/02 01:03:15;;;;;;;0.73;0.40;;;12.80;99.90;;;;;;5039289;28;20293;-51
2022/09/02 01:05:46;;;;;;;1.00;0.47;;;12.70;99.90;;;;;;5044974;28;20223;-51
2022/09/02 01:08:15;;;;;;;1.07;0.57;;;12.80;99.90;;;;;;5040567;28;20200;-47
2022/09/02 01:10:43;;;;;;;0.43;0.43;;;12.80;99.90;;;;;;5029999;28;20203;-48
2022/09/02 01:13:14;;;;;;;0.57;0.53;;;12.70;99.90;;;;;;5035282;28;20219;-50
2022/09/02 01:15:44;;;;;;;0.80;0.80;;;12.70;99.90;;;;;;5042094;28;20558;-48
2022/09/02 01:18:17;;;;;;;2.63;0.90;;;12.50;99.90;;;;;;5038813;28;20408;-51
2022/09/02 01:20:45;;;;;;;0.50;0.50;;;12.50;99.90;;;;;;5057626;28;20257;-48
2022/09/02 01:23:15;;;;;;;0.50;0.47;;;12.50;99.90;;;;;;5040037;28;20230;-51
2022/09/02 01:25:42;;;;;;;0.50;0.50;;;12.50;99.90;;;;;;5031237;28;20629;-47
2022/09/02 01:28:12;;;;;;;0.50;0.50;;;12.50;99.90;;;;;;5040941;28;20291;-49
2022/09/02 01:30:41;;;;;;;2.40;0.80;;;12.40;99.90;;;;;;5040553;28;20207;-47
2022/09/02 01:33:10;;;;;;;0.90;0.90;;;12.40;99.90;;;;;;5040378;28;20219;-48
2022/09/02 01:35:36;;;;;;;0.63;0.63;;;12.40;99.90;;;;;;5043491;28;20207;-49
2022/09/02 01:38:03;;;;;;;1.37;0.60;;;12.40;99.90;;;;;;5040744;28;20290;-46
2022/09/02 01:40:33;;;;;;;0.77;0.77;;;12.40;99.90;;;;;;5040599;28;20233;-48
2022/09/02 01:43:04;;;;;;;0.50;0.50;;;12.40;99.90;;;;;;5028312;28;20300;-48
2022/09/02 01:45:31;;;;;;;0.53;0.53;;;12.40;99.90;;;;;;5039218;28;20365;-46
2022/09/02 01:47:57;;;;;;;0.50;0.50;;;12.40;99.90;;;;;;5042657;28;20218;-48
2022/09/02 01:50:25;;;;;;;0.93;0.60;;;12.30;99.90;;;;;;5040722;28;20710;-46
2022/09/02 01:52:52;;;;;;;0.40;0.40;;;12.40;99.90;;;;;;5041203;28;20219;-51
2022/09/02 01:55:19;;;;;;;2.30;0.50;;;12.30;99.90;;;;;;5039834;28;20183;-46
2022/09/02 01:57:47;;;;;;;2.30;0.70;;;12.30;99.90;;;;;;5029368;28;20203;-51
2022/09/02 02:00:16;;;;;;;0.73;0.73;;;12.30;99.90;;;;;;5039499;28;20910;-49
2022/09/02 02:02:42;;;;;;;0.70;0.70;;;12.30;99.90;;;;;;5038517;28;20766;-48
2022/09/02 02:05:10;;;;;;;0.67;0.67;;;12.30;99.90;;;;;;5037304;28;20234;-48
2022/09/02 02:07:39;;;;;;;0.93;0.93;;;12.30;99.90;;;;;;5043422;28;20249;-51
2022/09/02 02:10:09;;;;;;;0.97;0.87;;;12.20;99.90;;;;;;5040638;28;20773;-45
2022/09/02 02:12:36;;;;;;;1.57;0.50;;;12.20;99.90;;;;;;5038589;28;20216;-45
2022/09/02 02:15:08;;;;;;;0.60;0.60;;;12.20;99.90;;;;;;5024199;28;20680;-49
2022/09/02 02:17:36;;;;;;;1.10;0.70;;;12.20;99.90;;;;;;5043321;28;20211;-46
2022/09/02 02:20:07;;;;;;;0.97;0.70;;;12.10;99.90;;;;;;5038848;28;20195;-45
2022/09/02 02:22:34;;;;;;;0.63;0.63;;;12.10;99.90;;;;;;5042486;28;20230;-45
2022/09/02 02:25:01;;;;;;;1.07;0.60;;;12.10;99.90;;;;;;5039910;28;20199;-46
2022/09/02 02:27:29;;;;;;;0.67;0.67;;;12.10;99.90;;;;;;5041969;28;20214;-46
2022/09/02 02:29:58;;;;;;;0.73;0.67;;;12.00;99.90;;;;;;5023117;28;20214;-50
2022/09/02 02:32:26;;;;;;;0.70;0.63;;;12.00;99.90;;;;;;5036051;28;20219;-50
2022/09/02 02:34:55;;;;;;;0.50;0.50;;;12.00;99.90;;;;;;5039670;28;20664;-47
2022/09/02 02:37:21;;;;;;;1.83;0.83;;;12.00;99.90;;;;;;5040114;28;20191;-50
2022/09/02 02:39:48;;;;;;;1.43;0.60;;;12.00;99.90;;;;;;5042766;28;20278;-46
2022/09/02 02:42:16;;;;;;;0.80;0.70;;;12.00;99.90;;;;;;5037825;28;20218;-50
2022/09/02 02:44:43;;;;;;;0.63;0.63;;;12.00;99.90;;;;;;5027784;28;20215;-51
2022/09/02 02:47:10;;;;;;;1.57;0.70;;;12.00;99.90;;;;;;5034951;28;20215;-49
2022/09/02 02:49:41;;;;;;;0.50;0.50;;;12.00;99.90;;;;;;5041022;28;20722;-46
2022/09/02 02:52:09;;;;;;;1.90;0.70;;;11.90;99.90;;;;;;5032651;28;20227;-49
2022/09/02 02:54:36;;;;;;;1.23;0.60;;;11.80;99.90;;;;;;5040612;28;20192;-51
2022/09/02 02:57:05;;;;;;;0.70;0.70;;;11.80;99.90;;;;;;5037762;28;20199;-51
2022/09/02 02:59:31;;;;;;;0.53;0.50;;;11.80;99.90;;;;;;5042167;28;20198;-47
2022/09/02 03:01:59;;;;;;;1.80;0.60;;;11.80;99.90;;;;;;5025680;28;20672;-49
2022/09/02 03:04:26;;;;;;;0.80;0.80;;;11.80;99.90;;;;;;5033511;28;20973;-46
2022/09/02 03:06:54;;;;;;;0.70;0.70;;;11.70;99.90;;;;;;5040608;28;20229;-46
2022/09/02 03:09:22;;;;;;;2.50;0.60;;;11.70;99.90;;;;;;5040284;28;20191;-47
2022/09/02 03:11:49;;;;;;;1.30;1.20;;;11.70;99.90;;;;;;5040486;28;20615;-46
2022/09/02 03:14:17;;;;;;;0.67;0.67;;;11.70;99.90;;;;;;5036589;28;20298;-45
2022/09/02 03:16:45;;;;;;;0.73;0.70;;;11.70;99.90;;;;;;5026953;28;20196;-45
2022/09/02 03:19:13;;;;;;;0.80;0.70;;;11.70;99.90;;;;;;5051257;28;20306;-51
2022/09/02 03:21:40;;;;;;;1.93;0.70;;;11.70;99.90;;;;;;5041481;28;20257;-47
2022/09/02 03:24:12;;;;;;;2.73;0.50;;;11.60;99.90;;;;;;5034941;28;20227;-51
2022/09/02 03:26:41;;;;;;;0.73;0.60;;;11.60;99.90;;;;;;5038726;28;20592;-48
2022/09/02 03:29:08;;;;;;;0.87;0.80;;;11.60;99.90;;;;;;5047674;28;20684;-50
2022/09/02 03:31:35;;;;;;;0.57;0.53;;;11.60;99.90;;;;;;5042463;28;20195;-46
2022/09/02 03:34:03;;;;;;;1.07;0.80;;;11.60;99.90;;;;;;5035088;28;20230;-50
2022/09/02 03:36:31;;;;;;;1.43;0.73;;;11.60;99.90;;;;;;5042684;28;20187;-47
2022/09/02 03:38:59;;;;;;;0.73;0.73;;;11.60;99.90;;;;;;5039277;28;21012;-51
2022/09/02 03:41:30;;;;;;;0.80;0.80;;;11.60;99.90;;;;;;5036705;28;20195;-49
2022/09/02 03:43:58;;;;;;;0.70;0.70;;;11.50;99.90;;;;;;5042799;28;20227;-50
2022/09/02 03:46:27;;;;;;;0.93;0.90;;;11.50;99.90;;;;;;5043387;28;20838;-47
2022/09/02 03:48:55;;;;;;;1.10;1.03;;;11.50;99.90;;;;;;5030032;28;20243;-49
2022/09/02 03:51:23;;;;;;;1.00;0.70;;;11.50;99.90;;;;;;5040975;28;20199;-50
2022/09/02 03:53:49;;;;;;;2.20;0.70;;;11.50;99.90;;;;;;5042548;28;20623;-49
2022/09/02 03:56:18;;;;;;;3.13;0.77;;;11.50;99.90;;;;;;5040216;28;20298;-49
2022/09/02 03:58:49;;;;;;;0.93;0.80;;;11.40;99.90;;;;;;5041116;28;20195;-50
2022/09/02 04:01:19;;;;;;;0.60;0.60;;;11.40;99.90;;;;;;5044610;28;20199;-50
2022/09/02 04:03:46;;;;;;;3.30;0.70;;;11.40;99.90;;;;;;5025190;28;20223;-50
2022/09/02 04:06:18;;;;;;;1.43;1.30;;;11.30;99.90;;;;;;5045699;28;20215;-47
2022/09/02 04:08:47;;;;;;;1.13;0.90;;;11.30;99.90;;;;;;5040959;28;20386;-53
2022/09/02 04:11:17;;;;;;;1.20;0.60;;;11.20;99.90;;;;;;5045174;28;20612;-51
2022/09/02 04:13:48;;;;;;;1.90;0.83;;;11.20;99.90;;;;;;5038991;28;20219;-47
2022/09/02 04:16:20;;;;;;;1.77;0.77;;;11.20;99.90;;;;;;5044775;28;20620;-49
2022/09/02 04:18:47;;;;;;;1.07;0.70;;;11.30;99.90;;;;;;5027524;28;20203;-52
2022/09/02 04:21:14;;;;;;;1.20;0.70;;;11.30;99.90;;;;;;5060554;28;20211;-47
2022/09/02 04:23:42;;;;;;;0.80;0.80;;;11.20;99.90;;;;;;5038649;28;20239;-49
2022/09/02 04:26:12;;;;;;;2.00;0.90;;;11.20;99.90;;;;;;5044220;28;20225;-53
2022/09/02 04:28:39;;;;;;;1.67;0.93;;;11.20;99.90;;;;;;5040814;28;20203;-49
2022/09/02 04:31:11;;;;;;;0.90;0.80;;;11.20;99.90;;;;;;5040105;28;20219;-49
2022/09/02 04:33:39;;;;;;;0.87;0.87;;;11.20;99.90;;;;;;5038927;28;20219;-52
2022/09/02 04:36:13;;;;;;;1.27;0.63;;;11.20;99.90;;;;;;5029994;28;20684;-54
2022/09/02 04:38:40;;;;;;;1.70;0.77;;;11.20;99.90;;;;;;5054026;28;20207;-50
2022/09/02 04:41:09;;;;;;;1.43;0.70;;;11.20;99.90;;;;;;5040452;28;20230;-53
2022/09/02 04:43:37;;;;;;;4.73;1.07;;;11.10;99.90;;;;;;5032929;28;20242;-55
2022/09/02 04:46:05;;;;;;;1.07;0.90;;;11.10;99.90;;;;;;5042199;28;20197;-53
2022/09/02 04:48:35;;;;;;;2.77;0.90;;;11.10;99.90;;;;;;5038820;28;20360;-50
2022/09/02 04:51:06;;;;;;;1.07;0.80;;;11.10;99.90;;;;;;5026614;28;20212;-48
2022/09/02 04:53:34;;;;;;;1.60;1.20;;;11.20;99.90;;;;;;5025746;28;20230;-49
2022/09/02 04:56:03;;;;;;;1.17;0.90;;;11.10;99.90;;;;;;5031510;28;20195;-45
2022/09/02 04:58:30;;;;;;;0.90;0.80;;;11.10;99.90;;;;;;5032249;28;20207;-43
2022/09/02 05:00:57;;;;;;;2.20;0.90;;;11.10;99.90;;;;;;5046533;28;20199;-43
2022/09/02 05:03:25;;;;;;;1.90;1.20;;;11.10;99.90;;;;;;5030867;28;20223;-47
2022/09/02 05:06:04;;;;;;;2.50;0.90;;;11.10;99.90;;;;;;5032316;28;20206;-43
2022/09/02 05:08:33;;;;;;;1.00;0.80;;;11.20;99.90;;;;;;5013291;28;20940;-45
2022/09/02 05:11:01;;;;;;;0.97;0.93;;;11.20;99.90;;;;;;5038879;28;20200;-45
2022/09/02 05:13:28;;;;;;;1.00;0.90;;;11.20;99.90;;;;;;5033018;28;20215;-44
2022/09/02 05:15:56;;;;;;;2.80;0.93;;;11.20;99.90;;;;;;5047920;28;20227;-48
2022/09/02 05:18:23;;;;;;;1.83;0.93;;;11.20;99.90;;;;;;5037586;28;20286;-43
2022/09/02 05:20:51;;;;;;;1.77;0.83;;;11.30;99.90;;;;;;5042365;28;20203;-42
2022/09/02 05:23:20;;;;;;;1.47;1.30;;;11.30;99.90;;;;;;5030859;28;20305;-46
2022/09/02 05:25:47;;;;;;;0.73;0.73;;;11.30;99.90;;;;;;5032686;28;20218;-44
2022/09/02 05:28:15;;;;;;;0.90;0.90;;;11.30;99.90;;;;;;5042981;28;20588;-43
2022/09/02 05:30:43;;;;;;;1.87;0.90;;;11.40;99.90;;;;;;5035457;28;20203;-45
2022/09/02 05:33:11;;;;;;;2.10;1.10;;;11.40;99.90;;;;;;5042342;28;20319;-43
2022/09/02 05:35:41;;;;;;;2.03;1.20;;;11.40;99.90;;;;;;5039125;28;20200;-42
2022/09/02 05:38:08;;;;;;;1.03;0.73;;;11.40;99.90;;;;;;5030364;28;20219;-42
2022/09/02 05:40:38;;;;;;;1.07;0.97;;;11.50;99.90;;;;;;5035677;28;20207;-44
2022/09/02 05:43:07;;;;;;;0.90;0.90;;;11.50;99.90;;;;;;5038611;28;20231;-44
2022/09/02 05:45:38;;;;;;;1.37;1.07;;;11.50;99.90;;;;;;5040720;28;20202;-44
2022/09/02 05:49:04;;;;;;;1.57;0.90;;;11.60;99.90;;;;;;5043283;28;20238;-42
2022/09/02 05:50:54;;;;;;;3.07;1.10;;;11.60;99.90;;;;;;5040727;28;20190;-42
2022/09/02 05:53:20;;;;;;;2.47;0.83;;;11.70;99.90;;;;;;5027503;28;20229;-42
2022/09/02 05:55:49;;;;;;;1.07;0.90;;;11.70;99.90;;;;;;5036751;28;20208;-46
2022/09/02 05:58:17;;;;;;;1.27;1.17;;;11.70;99.90;;;;;;5039331;28;20196;-43
2022/09/02 06:00:43;;;;;;;1.03;1.00;;;11.80;99.90;;;;;;5041071;28;20565;-44
2022/09/02 06:03:11;;;;;;;2.33;1.20;;;11.90;99.90;;;;;;5042330;28;20227;-45
2022/09/02 06:05:39;;;;;;;1.80;0.97;;;11.90;99.90;;;;;;5040093;28;20286;-43
2022/09/02 06:08:13;;;;;;;1.60;1.33;;;12.00;99.90;;;;;;5043601;28;20222;-43
2022/09/02 06:10:42;;;;;;;1.27;1.13;;;12.10;99.90;;;;;;5021690;28;20214;-44
2022/09/02 06:13:11;;;;;;;4.63;1.10;;;12.20;99.90;;;;;;5038550;28;20231;-43
2022/09/02 06:15:42;;;;;;;2.47;1.20;;;12.30;99.90;;;;;;5043050;28;20284;-44
2022/09/02 06:18:11;;;;;;;2.50;1.30;;;12.40;99.90;;;;;;5043928;28;20218;-42
2022/09/02 06:20:40;;;;;;;8.07;1.43;;;12.40;99.90;;;;;;5032352;28;20200;-42
2022/09/02 06:23:07;;;;;;;2.47;1.27;;;12.50;99.90;;;;;;5049238;28;20250;-42
2022/09/02 06:25:36;;;;;;;1.20;1.10;;;12.60;99.90;;;;;;5022051;28;20199;-46
2022/09/02 06:28:04;;;;;;;4.20;0.90;;;12.70;99.90;;;;;;5036369;28;20550;-42
2022/09/02 06:30:32;;;;;;;1.10;1.00;;;12.80;99.90;;;;;;5031026;28;20204;-47
2022/09/02 06:33:02;;;;;;;1.30;0.90;;;12.90;99.90;;;;;;5029622;28;20310;-46
2022/09/02 06:35:30;;;;;;;2.37;0.80;;;12.90;99.90;;;;;;5035707;28;20199;-42
2022/09/02 06:37:57;;;;;;;0.90;0.90;;;13.10;99.90;;;;;;5035952;28;20222;-43
2022/09/02 06:40:24;;;;;;;4.10;1.00;;;13.20;99.90;;;;;;5024716;28;20225;-44
2022/09/02 06:42:52;;;;;;;1.10;1.00;;;13.40;99.90;;;;;;5038759;28;20250;-45
2022/09/02 06:45:41;;;;;;;0.83;0.80;;;13.40;99.90;;;;;;5037886;28;20248;-46
2022/09/02 06:48:09;;;;;;;1.90;0.83;;;13.50;99.90;;;;;;5034095;28;20215;-45
2022/09/02 06:50:39;;;;;;;3.07;1.07;;;13.60;99.90;;;;;;5048643;28;20196;-49
2022/09/02 06:53:07;;;;;;;1.17;0.80;;;13.70;99.90;;;;;;5040079;28;20219;-45
2022/09/02 06:55:37;;;;;;;1.70;0.80;;;13.80;99.90;;;;;;5023047;28;20344;-47
2022/09/02 06:58:06;;;;;;;1.03;0.90;;;14.00;99.90;;;;;;5038293;28;21193;-43
2022/09/02 07:00:34;;;;;;;2.50;0.73;;;14.10;99.90;;;;;;5044982;28;20278;-45
2022/09/02 07:05:57;;;;;;;1.00;0.80;;;14.30;99.90;;;;;;5036876;28;20191;-43
2022/09/02 07:08:25;;;;;;;0.87;0.67;;;14.40;99.90;;;;;;5037442;28;20211;-43
2022/09/02 07:10:52;;;;;;;2.00;0.70;;;14.60;99.90;;;;;;5027976;28;21744;-42
2022/09/02 07:13:19;;;;;;;0.60;0.60;;;14.70;99.90;;;;;;5023202;28;20229;-42
2022/09/02 07:15:47;;;;;;;3.23;0.90;;;15.00;99.90;;;;;;5037530;28;20217;-43
2022/09/02 07:18:15;;;;;;;1.73;0.70;;;15.10;99.90;;;;;;5039647;28;20294;-43
2022/09/02 07:20:45;;;;;;;0.53;0.53;;;15.10;99.90;;;;;;5041657;28;20256;-44
2022/09/02 07:23:12;;;;;;;0.97;0.60;;;15.20;99.90;;;;;;5041284;28;20226;-41
2022/09/02 07:25:40;;;;;;;1.50;0.70;;;15.30;99.90;;;;;;5035847;28;20230;-42
2022/09/02 07:28:09;;;;;;;0.67;0.67;;;15.40;99.90;;;;;;5032392;28;20588;-42
2022/09/02 07:30:38;;;;;;;1.60;0.83;;;15.60;99.90;;;;;;5036469;28;20868;-42
2022/09/02 07:33:12;;;;;;;1.13;0.67;;;15.80;99.90;;;;;;5044135;28;20226;-42
2022/09/02 07:35:41;;;;;;;0.87;0.63;;;16.00;99.90;;;;;;5048784;28;20199;-42
2022/09/02 07:38:08;;;;;;;0.40;0.40;;;16.10;99.90;;;;;;5044375;28;20736;-41
2022/09/02 07:40:37;;;;;;;1.02;0.73;;;16.20;99.90;;;;;;5036246;28;21135;-42
2022/09/02 07:43:07;;;;;;;0.80;0.50;;;16.40;99.90;;;;;;5043697;28;20450;-42
2022/09/02 07:45:36;;;;;;;0.70;0.50;;;16.70;99.90;;;;;;5024916;28;20218;-42
2022/09/02 07:48:06;;;;;;;0.73;0.60;;;16.80;99.90;;;;;;5048137;28;20506;-42
2022/09/02 07:50:35;;;;;;;0.57;0.50;;;16.90;99.90;;;;;;5032947;28;20530;-44
2022/09/02 07:53:05;;;;;;;0.27;0.27;;;17.00;99.90;;;;;;5031708;28;20223;-42
2022/09/02 07:55:34;;;;;;;1.00;0.47;;;17.20;99.90;;;;;;5042994;28;20192;-44
2022/09/02 07:58:03;;;;;;;1.03;0.50;;;17.20;99.90;;;;;;5051504;28;20219;-42
2022/09/02 08:00:31;;;;;;;2.07;0.60;;;17.30;99.90;;;;;;5040334;28;20215;-42
2022/09/02 08:03:05;;;;;;;0.80;0.40;;;17.40;99.90;;;;;;5042813;28;20706;-43
2022/09/02 08:05:38;;;;;;;0.87;0.50;;;17.50;99.90;;;;;;5032736;28;20207;-44
2022/09/02 08:08:07;;;;;;;1.03;0.40;;;17.70;99.90;;;;;;5044651;28;20688;-42
2022/09/02 08:10:35;;;;;;;1.43;1.07;;;17.70;99.90;;;;;;5036608;28;20207;-42
2022/09/02 08:13:02;;;;;;;0.60;0.40;;;17.80;99.90;;;;;;5039085;28;20235;-44
2022/09/02 08:15:30;;;;;;;1.90;0.43;;;18.00;99.90;;;;;;5026304;28;20214;-43
2022/09/02 08:17:57;;;;;;;0.33;0.33;;;18.10;99.90;;;;;;5032396;28;20195;-44
2022/09/02 08:20:24;;;;;;;0.60;0.50;;;18.20;99.90;;;;;;5034180;28;20207;-42
2022/09/02 08:22:50;;;;;;;0.43;0.43;;;18.30;99.90;;;;;;5035118;28;20212;-41
2022/09/02 08:25:19;;;;;;;0.40;0.40;;;18.30;99.90;;;;;;5038982;28;20211;-41
2022/09/02 08:27:45;;;;;;;0.87;0.50;;;18.40;99.90;;;;;;5039075;28;20250;-42
2022/09/02 08:30:14;;;;;;;2.00;0.40;;;18.50;99.90;;;;;;5041198;28;20231;-42
2022/09/02 08:32:42;;;;;;;1.57;0.50;;;18.50;99.90;;;;;;5027702;28;20231;-44
2022/09/02 08:35:10;;;;;;;0.50;0.50;;;18.70;99.90;;;;;;5039651;28;20210;-42
2022/09/02 08:37:38;;;;;;;0.57;0.57;;;18.70;99.90;;;;;;5040103;28;20911;-47
2022/09/02 08:40:11;;;;;;;1.07;0.50;;;18.80;99.90;;;;;;5038478;28;20218;-42
2022/09/02 08:42:45;;;;;;;0.70;0.53;;;18.80;99.90;;;;;;5039083;28;20300;-43
2022/09/02 08:45:15;;;;;;;0.70;0.50;;;18.90;99.70;;;;;;5029925;28;20459;-45
2022/09/02 08:47:46;;;;;;;1.20;0.43;;;19.00;99.70;;;;;;5020547;28;20795;-44
2022/09/02 08:50:16;;;;;;;1.17;0.50;;;19.10;99.20;;;;;;5034322;28;20207;-42
2022/09/02 08:52:49;;;;;;;4.13;0.47;;;19.10;98.90;;;;;;5028467;28;20211;-44
2022/09/02 08:55:21;;;;;;;0.73;0.50;;;19.20;98.80;;;;;;5035090;28;20206;-42
2022/09/02 08:57:49;;;;;;;0.60;0.50;;;19.30;98.50;;;;;;5032529;28;20335;-42
2022/09/02 09:00:17;;;;;;;0.70;0.50;;;19.30;98.20;;;;;;5037634;28;20195;-43
2022/09/02 09:02:56;;;;;;;1.20;0.40;;;19.30;97.80;;;;;;5014930;28;20219;-44
2022/09/02 09:05:31;;;;;;;2.23;0.80;;;19.40;97.50;;;;;;5029403;28;20260;-42
2022/09/02 09:08:08;;;;;;;1.50;0.60;;;19.50;97.00;;;;;;5034368;28;20731;-46
2022/09/02 09:10:42;;;;;;;1.57;0.70;;;19.50;96.70;;;;;;5023583;28;20206;-43
2022/09/02 09:13:31;;;;;;;1.20;0.43;;;19.60;96.40;;;;;;5036808;28;20222;-42
2022/09/02 09:16:07;;;;;;;1.73;0.60;;;19.60;96.10;;;;;;5037363;28;20735;-42
2022/09/02 09:18:39;;;;;;;0.50;0.50;;;19.70;95.70;;;;;;5023753;28;20214;-42
2022/09/02 09:21:06;;;;;;;0.50;0.50;;;19.80;95.60;;;;;;5038945;28;20211;-41
2022/09/02 09:23:35;;;;;;;0.40;0.33;;;19.80;95.30;;;;;;5038481;28;20704;-44
2022/09/02 09:26:07;;;;;;;2.20;0.47;;;19.90;95.10;;;;;;5039669;28;20203;-46
2022/09/02 09:28:41;;;;;;;0.50;0.43;;;20.00;94.80;;;;;;5039455;28;20215;-43
2022/09/02 09:31:12;;;;;;;0.60;0.60;;;20.00;94.60;;;;;;5043126;28;20737;-41
2022/09/02 09:33:39;;;;;;;1.23;0.50;;;20.10;94.60;;;;;;5019566;28;20231;-42
2022/09/02 09:36:07;;;;;;;3.40;0.77;;;20.20;94.60;;;;;;5036461;28;20207;-42
2022/09/02 09:38:35;;;;;;;1.83;0.57;;;20.20;94.10;;;;;;5038963;28;20203;-42
2022/09/02 09:41:17;;;;;;;3.60;0.83;;;20.30;93.80;;;;;;5039779;28;20269;-45
2022/09/02 09:43:45;;;;;;;0.70;0.60;;;20.30;93.60;;;;;;5039514;28;20946;-43
2022/09/02 09:46:27;;;;;;;1.33;0.50;;;20.30;93.20;;;;;;5042867;28;20210;-45
2022/09/02 09:48:54;;;;;;;1.50;0.50;;;20.40;92.40;;;;;;5024044;28;21172;-45
2022/09/02 09:51:21;;;;;;;1.30;0.50;;;20.30;92.80;;;;;;5035718;28;20203;-45
2022/09/02 09:53:48;;;;;;;0.77;0.60;;;20.30;93.10;;;;;;5033917;28;20215;-44
2022/09/02 09:56:26;;;;;;;0.60;0.50;;;20.30;92.90;;;;;;5038640;28;20881;-43
2022/09/02 09:58:55;;;;;;;2.00;0.80;;;20.50;92.50;;;;;;5039675;28;20199;-46
2022/09/02 10:01:24;;;;;;;0.50;0.50;;;20.50;92.50;;;;;;5038991;28;20195;-46
2022/09/02 10:03:54;;;;;;;0.40;0.30;;;20.50;92.50;;;;;;5037777;28;20623;-47
2022/09/02 10:06:23;;;;;;;0.30;0.30;;;20.70;92.00;;;;;;5029685;28;20723;-44
2022/09/02 10:08:55;;;;;;;0.87;0.40;;;20.70;91.50;;;;;;5037271;28;20215;-45
2022/09/02 10:11:25;;;;;;;0.53;0.40;;;20.90;91.50;;;;;;5035468;28;20633;-45
2022/09/02 10:13:59;;;;;;;0.30;0.30;;;21.00;90.70;;;;;;5041679;28;20276;-45
2022/09/02 10:16:41;;;;;;;0.77;0.50;;;21.10;90.70;;;;;;5036210;28;20231;-43
2022/09/02 10:19:16;;;;;;;1.23;0.50;;;21.30;90.00;;;;;;5037480;28;20206;-45
2022/09/02 10:22:04;;;;;;;1.20;0.40;;;21.20;90.00;;;;;;5034136;28;20210;-43
2022/09/02 10:24:51;;;;;;;0.67;0.47;;;21.10;89.80;;;;;;5037293;28;20203;-43
2022/09/02 10:27:30;;;;;;;2.27;0.50;;;20.90;89.80;;;;;;5038488;28;20215;-46
2022/09/02 10:30:05;;;;;;;0.60;0.50;;;20.90;90.00;;;;;;5039569;28;20247;-46
2022/09/02 10:32:52;;;;;;;0.50;0.50;;;20.90;89.60;;;;;;5029621;28;20311;-46
2022/09/02 10:35:29;;;;;;;1.83;0.40;;;21.00;89.20;;;;;;5022357;28;20569;-43
2022/09/02 10:38:10;;;;;;;0.47;0.47;;;21.00;89.30;;;;;;5038097;28;20781;-45
2022/09/02 10:40:44;;;;;;;0.40;0.40;;;21.10;88.60;;;;;;5037011;28;20202;-44
2022/09/02 10:43:26;;;;;;;0.50;0.50;;;21.10;88.20;;;;;;5033396;28;20922;-46
2022/09/02 10:45:59;;;;;;;1.43;0.50;;;21.10;87.50;;;;;;5038940;28;20203;-44
2022/09/02 10:48:37;;;;;;;0.30;0.30;;;21.10;87.60;;;;;;5043485;28;20244;-44
2022/09/02 10:51:10;;;;;;;0.80;0.50;;;21.20;87.40;;;;;;5024586;28;20576;-44
2022/09/02 10:53:49;;;;;;;2.80;0.50;;;21.30;87.30;;;;;;5037418;28;20290;-42
2022/09/02 10:56:21;;;;;;;0.90;0.60;;;21.40;87.20;;;;;;5032942;28;20222;-45
2022/09/02 10:58:54;;;;;;;0.57;0.40;;;21.50;86.50;;;;;;5041159;28;20467;-46
2022/09/02 11:01:26;;;;;;;2.20;0.60;;;21.30;86.10;;;;;;5034759;28;20200;-43
2022/09/02 11:04:03;;;;;;;0.93;0.50;;;21.30;85.70;;;;;;5036335;28;20215;-45
2022/09/02 11:06:32;;;;;;;4.53;0.60;;;21.40;85.00;;;;;;5015031;28;20203;-47
2022/09/02 11:09:03;;;;;;;5.88;1.00;;;21.30;84.20;;;;;;5039153;28;20455;-43
2022/09/02 11:11:36;;;;;;;1.70;0.47;;;21.30;84.00;;;;;;5035060;28;20199;-42
2022/09/02 11:14:14;;;;;;;0.50;0.50;;;21.30;84.60;;;;;;5039183;28;20223;-43
2022/09/02 11:16:46;;;;;;;1.63;0.60;;;21.40;84.60;;;;;;5043559;28;20454;-43
2022/09/02 11:19:18;;;;;;;0.77;0.50;;;21.50;84.50;;;;;;5039141;28;20206;-48
2022/09/02 11:21:55;;;;;;;0.60;0.50;;;21.70;84.10;;;;;;5037213;28;20202;-45
2022/09/02 11:24:28;;;;;;;1.10;0.70;;;21.70;83.30;;;;;;5024596;28;20218;-48
2022/09/02 11:27:01;;;;;;;1.87;0.47;;;21.70;83.00;;;;;;5034194;28;20614;-45
2022/09/02 11:29:36;;;;;;;1.70;0.50;;;21.90;82.80;;;;;;5033202;28;20246;-48
2022/09/02 11:32:15;;;;;;;2.37;0.83;;;22.00;82.10;;;;;;5042338;28;20226;-44
2022/09/02 11:34:46;;;;;;;3.73;0.60;;;21.90;82.40;;;;;;5037137;28;20197;-44
2022/09/02 11:37:28;;;;;;;3.03;0.60;;;22.00;82.70;;;;;;5033412;28;20218;-44
2022/09/02 11:40:00;;;;;;;1.13;0.70;;;22.20;80.50;;;;;;5025391;28;20191;-43
2022/09/02 11:42:43;;;;;;;0.60;0.60;;;22.20;80.40;;;;;;5035634;28;20219;-44
2022/09/02 11:45:38;;;;;;;0.60;0.53;;;22.30;80.20;;;;;;5033563;28;20214;-45
2022/09/02 11:48:44;;;;;;;0.73;0.45;;;22.20;80.10;;;;;;5034264;28;20199;-43
2022/09/02 11:51:38;;;;;;;1.10;0.70;;;21.90;79.20;;;;;;5034549;28;20726;-45
2022/09/02 11:54:07;;;;;;;1.83;0.60;;;21.70;79.80;;;;;;5027091;28;20219;-44
2022/09/02 11:56:39;;;;;;;0.53;0.50;;;21.60;80.10;;;;;;5030721;28;20221;-46
2022/09/02 11:59:06;;;;;;;3.97;0.70;;;21.60;80.40;;;;;;5039609;28;20696;-45
2022/09/02 12:01:37;;;;;;;1.60;0.73;;;21.60;80.60;;;;;;5031627;28;20199;-43
2022/09/02 12:04:06;;;;;;;0.40;0.40;;;21.70;79.70;;;;;;5040244;28;20984;-46
2022/09/02 12:06:34;;;;;;;2.20;0.50;;;21.70;78.90;;;;;;5036638;28;20211;-44
2022/09/02 12:09:07;;;;;;;0.70;0.70;;;21.80;78.70;;;;;;5029908;28;20227;-43
2022/09/02 12:11:40;;;;;;;0.43;0.43;;;22.00;78.60;;;;;;5022652;28;20958;-44
2022/09/02 12:14:10;;;;;;;1.70;0.50;;;22.30;77.40;;;;;;5036572;28;20231;-43
2022/09/02 12:17:01;;;;;;;1.27;0.50;;;22.60;75.50;;;;;;5035354;28;20816;-43
2022/09/02 12:19:40;;;;;;;1.50;0.63;;;22.80;74.50;;;;;;5028238;28;20202;-44
2022/09/02 12:22:27;;;;;;;1.45;0.50;;;23.00;73.30;;;;;;5039367;28;20324;-43
2022/09/02 12:24:54;;;;;;;0.32;0.32;;;22.90;73.40;;;;;;5027340;28;20203;-44
2022/09/02 12:27:27;;;;;;;0.55;0.40;;;22.70;74.00;;;;;;5042877;28;20203;-45
2022/09/02 12:29:55;;;;;;;0.73;0.40;;;22.60;73.80;;;;;;5042007;28;20591;-43
2022/09/02 12:33:08;;;;;;;0.60;0.60;;;22.40;74.40;;;;;;5036955;28;20224;-47
2022/09/02 12:35:51;;;;;;;2.22;0.60;;;22.50;74.80;;;;;;5030953;28;20199;-43
2022/09/02 12:38:26;;;;;;;2.10;0.50;;;22.70;73.90;;;;;;5040895;28;20206;-43
2022/09/02 12:40:58;;;;;;;1.13;0.50;;;22.80;73.30;;;;;;5033237;28;20206;-44
2022/09/02 12:43:27;;;;;;;1.95;0.68;;;23.00;73.00;;;;;;5040214;28;20253;-44
2022/09/02 12:46:00;;;;;;;0.45;0.45;;;23.00;73.30;;;;;;5042647;28;20812;-43
2022/09/02 12:48:39;;;;;;;0.43;0.43;;;23.10;72.40;;;;;;5044245;28;20194;-47
2022/09/02 12:51:07;;;;;;;0.55;0.50;;;23.20;71.70;;;;;;5039010;28;20200;-46
2022/09/02 12:53:40;;;;;;;1.85;0.50;;;23.40;70.90;;;;;;5040880;28;20208;-43
2022/09/02 12:56:20;;;;;;;0.35;0.32;;;23.50;70.60;;;;;;5040341;28;20195;-45
2022/09/02 12:58:49;;;;;;;0.60;0.55;;;23.50;70.10;;;;;;5040202;28;20958;-44
2022/09/02 13:01:19;;;;;;;0.90;0.50;;;23.20;70.50;;;;;;5041919;28;20187;-41
2022/09/02 13:04:07;;;;;;;0.40;0.40;;;23.20;70.50;;;;;;5040623;28;20298;-43
2022/09/02 13:06:44;;;;;;;0.63;0.63;;;23.50;70.20;;;;;;5046070;28;20215;-44
2022/09/02 13:09:41;;;;;;;0.50;0.43;;;23.70;69.10;;;;;;5045597;28;20230;-44